sensor_id;sensor_type;location;lat;lon;timestamp;P1;durP1;ratioP1;P2;durP2;ratioP2
76752;SDS011;65687;51.308;16.916;2024-03-02T00:04:59;57.20;;;34.00;;
76752;SDS011;65687;51.308;16.916;2024-03-02T00:10:01;56.80;;;31.70;;
76752;SDS011;65687;51.308;16.916;2024-03-02T00:20:40;60.50;;;35.20;;
76752;SDS011;65687;51.308;16.916;2024-03-02T00:25:43;64.90;;;36.50;;
76752;SDS011;65687;51.308;16.916;2024-03-02T00:30:51;60.80;;;33.80;;
76752;SDS011;65687;51.308;16.916;2024-03-02T00:35:57;57.20;;;35.50;;
76752;SDS011;65687;51.308;16.916;2024-03-02T00:40:59;53.60;;;31.10;;
76752;SDS011;65687;51.308;16.916;2024-03-02T00:46:05;45.60;;;23.90;;
76752;SDS011;65687;51.308;16.916;2024-03-02T00:56:10;59.60;;;34.80;;
76752;SDS011;65687;51.308;16.916;2024-03-02T01:01:13;58.80;;;33.20;;
76752;SDS011;65687;51.308;16.916;2024-03-02T01:06:15;55.60;;;34.20;;
76752;SDS011;65687;51.308;16.916;2024-03-02T01:11:18;62.00;;;36.90;;
76752;SDS011;65687;51.308;16.916;2024-03-02T01:16:19;59.70;;;33.20;;
76752;SDS011;65687;51.308;16.916;2024-03-02T01:21:21;64.90;;;36.50;;
76752;SDS011;65687;51.308;16.916;2024-03-02T01:26:23;61.30;;;34.30;;
76752;SDS011;65687;51.308;16.916;2024-03-02T01:31:25;56.20;;;33.60;;
76752;SDS011;65687;51.308;16.916;2024-03-02T01:36:26;65.70;;;35.90;;
76752;SDS011;65687;51.308;16.916;2024-03-02T01:41:28;60.00;;;34.70;;
76752;SDS011;65687;51.308;16.916;2024-03-02T01:46:30;61.20;;;34.00;;
76752;SDS011;65687;51.308;16.916;2024-03-02T01:51:31;60.60;;;34.40;;
76752;SDS011;65687;51.308;16.916;2024-03-02T01:56:33;68.10;;;37.00;;
76752;SDS011;65687;51.308;16.916;2024-03-02T02:01:35;68.30;;;38.60;;
76752;SDS011;65687;51.308;16.916;2024-03-02T02:06:36;65.90;;;35.60;;
76752;SDS011;65687;51.308;16.916;2024-03-02T02:11:38;66.80;;;36.60;;
76752;SDS011;65687;51.308;16.916;2024-03-02T02:16:40;49.70;;;28.60;;
76752;SDS011;65687;51.308;16.916;2024-03-02T02:21:42;61.60;;;35.40;;
76752;SDS011;65687;51.308;16.916;2024-03-02T02:31:45;59.40;;;31.80;;
76752;SDS011;65687;51.308;16.916;2024-03-02T02:36:47;63.70;;;36.40;;
76752;SDS011;65687;51.308;16.916;2024-03-02T02:41:49;53.90;;;30.40;;
76752;SDS011;65687;51.308;16.916;2024-03-02T02:46:50;75.00;;;41.40;;
76752;SDS011;65687;51.308;16.916;2024-03-02T02:51:52;71.60;;;39.80;;
76752;SDS011;65687;51.308;16.916;2024-03-02T02:56:54;64.40;;;35.40;;
76752;SDS011;65687;51.308;16.916;2024-03-02T03:01:55;62.40;;;36.30;;
76752;SDS011;65687;51.308;16.916;2024-03-02T03:06:57;67.00;;;38.00;;
76752;SDS011;65687;51.308;16.916;2024-03-02T03:11:59;63.10;;;36.60;;
76752;SDS011;65687;51.308;16.916;2024-03-02T03:17:00;67.70;;;37.30;;
76752;SDS011;65687;51.308;16.916;2024-03-02T03:22:02;54.60;;;31.00;;
76752;SDS011;65687;51.308;16.916;2024-03-02T03:27:04;70.20;;;36.70;;
76752;SDS011;65687;51.308;16.916;2024-03-02T03:32:06;69.50;;;40.00;;
76752;SDS011;65687;51.308;16.916;2024-03-02T03:37:08;69.10;;;36.90;;
76752;SDS011;65687;51.308;16.916;2024-03-02T03:47:12;53.90;;;30.70;;
76752;SDS011;65687;51.308;16.916;2024-03-02T03:52:14;66.00;;;36.70;;
76752;SDS011;65687;51.308;16.916;2024-03-02T03:57:15;47.90;;;28.60;;
76752;SDS011;65687;51.308;16.916;2024-03-02T04:02:17;58.90;;;35.40;;
76752;SDS011;65687;51.308;16.916;2024-03-02T04:07:19;65.60;;;36.90;;
76752;SDS011;65687;51.308;16.916;2024-03-02T04:12:21;68.70;;;36.90;;
76752;SDS011;65687;51.308;16.916;2024-03-02T04:17:23;57.90;;;33.90;;
76752;SDS011;65687;51.308;16.916;2024-03-02T04:22:25;64.00;;;35.20;;
76752;SDS011;65687;51.308;16.916;2024-03-02T04:27:28;60.20;;;31.50;;
76752;SDS011;65687;51.308;16.916;2024-03-02T04:32:29;59.50;;;34.00;;
76752;SDS011;65687;51.308;16.916;2024-03-02T04:37:33;60.20;;;32.80;;
76752;SDS011;65687;51.308;16.916;2024-03-02T04:42:35;57.70;;;33.00;;
76752;SDS011;65687;51.308;16.916;2024-03-02T04:47:37;60.00;;;36.00;;
76752;SDS011;65687;51.308;16.916;2024-03-02T04:52:39;53.30;;;31.40;;
76752;SDS011;65687;51.308;16.916;2024-03-02T04:57:41;57.30;;;32.60;;
76752;SDS011;65687;51.308;16.916;2024-03-02T05:02:42;57.50;;;32.50;;
76752;SDS011;65687;51.308;16.916;2024-03-02T05:07:44;56.80;;;31.60;;
76752;SDS011;65687;51.308;16.916;2024-03-02T05:12:46;54.40;;;32.20;;
76752;SDS011;65687;51.308;16.916;2024-03-02T05:17:47;50.90;;;28.70;;
76752;SDS011;65687;51.308;16.916;2024-03-02T05:22:49;48.40;;;28.40;;
76752;SDS011;65687;51.308;16.916;2024-03-02T05:27:50;51.50;;;29.10;;
76752;SDS011;65687;51.308;16.916;2024-03-02T05:32:52;53.00;;;29.80;;
76752;SDS011;65687;51.308;16.916;2024-03-02T05:37:54;57.20;;;32.90;;
76752;SDS011;65687;51.308;16.916;2024-03-02T05:42:56;55.80;;;29.00;;
76752;SDS011;65687;51.308;16.916;2024-03-02T05:47:57;52.70;;;34.00;;
76752;SDS011;65687;51.308;16.916;2024-03-02T05:52:59;51.00;;;30.00;;
76752;SDS011;65687;51.308;16.916;2024-03-02T05:58:01;44.30;;;26.30;;
76752;SDS011;65687;51.308;16.916;2024-03-02T06:03:21;51.40;;;30.00;;
76752;SDS011;65687;51.308;16.916;2024-03-02T06:08:23;49.60;;;29.40;;
76752;SDS011;65687;51.308;16.916;2024-03-02T06:13:24;50.10;;;28.40;;
76752;SDS011;65687;51.308;16.916;2024-03-02T06:18:27;53.00;;;30.10;;
76752;SDS011;65687;51.308;16.916;2024-03-02T06:23:29;56.70;;;31.40;;
76752;SDS011;65687;51.308;16.916;2024-03-02T06:28:30;53.70;;;29.10;;
76752;SDS011;65687;51.308;16.916;2024-03-02T06:33:32;58.50;;;33.10;;
76752;SDS011;65687;51.308;16.916;2024-03-02T06:38:34;57.00;;;29.90;;
76752;SDS011;65687;51.308;16.916;2024-03-02T06:43:36;56.80;;;30.90;;
76752;SDS011;65687;51.308;16.916;2024-03-02T06:48:37;37.80;;;20.10;;
76752;SDS011;65687;51.308;16.916;2024-03-02T06:53:39;62.40;;;35.30;;
76752;SDS011;65687;51.308;16.916;2024-03-02T06:58:40;55.80;;;32.50;;
76752;SDS011;65687;51.308;16.916;2024-03-02T07:03:44;52.90;;;30.30;;
76752;SDS011;65687;51.308;16.916;2024-03-02T07:08:45;51.40;;;31.30;;
76752;SDS011;65687;51.308;16.916;2024-03-02T07:13:47;67.20;;;35.90;;
76752;SDS011;65687;51.308;16.916;2024-03-02T07:18:49;66.70;;;36.10;;
76752;SDS011;65687;51.308;16.916;2024-03-02T07:23:53;53.00;;;30.10;;
76752;SDS011;65687;51.308;16.916;2024-03-02T07:28:54;60.60;;;33.10;;
76752;SDS011;65687;51.308;16.916;2024-03-02T07:33:56;64.60;;;35.30;;
76752;SDS011;65687;51.308;16.916;2024-03-02T07:38:58;64.20;;;35.60;;
76752;SDS011;65687;51.308;16.916;2024-03-02T07:43:59;60.00;;;34.50;;
76752;SDS011;65687;51.308;16.916;2024-03-02T07:49:01;62.90;;;33.20;;
76752;SDS011;65687;51.308;16.916;2024-03-02T07:54:03;58.00;;;31.50;;
76752;SDS011;65687;51.308;16.916;2024-03-02T07:59:04;56.80;;;34.40;;
76752;SDS011;65687;51.308;16.916;2024-03-02T08:04:06;56.40;;;32.40;;
76752;SDS011;65687;51.308;16.916;2024-03-02T08:09:08;62.90;;;35.40;;
76752;SDS011;65687;51.308;16.916;2024-03-02T08:14:12;57.70;;;31.70;;
76752;SDS011;65687;51.308;16.916;2024-03-02T08:19:13;53.20;;;28.90;;
76752;SDS011;65687;51.308;16.916;2024-03-02T08:24:15;49.50;;;27.20;;
76752;SDS011;65687;51.308;16.916;2024-03-02T08:29:17;47.90;;;28.10;;
76752;SDS011;65687;51.308;16.916;2024-03-02T08:34:19;51.90;;;30.60;;
76752;SDS011;65687;51.308;16.916;2024-03-02T08:39:21;48.30;;;28.10;;
76752;SDS011;65687;51.308;16.916;2024-03-02T08:44:23;44.20;;;24.90;;
76752;SDS011;65687;51.308;16.916;2024-03-02T08:49:25;46.30;;;27.20;;
76752;SDS011;65687;51.308;16.916;2024-03-02T08:54:27;42.80;;;25.60;;
76752;SDS011;65687;51.308;16.916;2024-03-02T08:59:29;47.20;;;29.50;;
76752;SDS011;65687;51.308;16.916;2024-03-02T09:04:31;46.70;;;29.20;;
76752;SDS011;65687;51.308;16.916;2024-03-02T09:09:32;45.40;;;26.20;;
76752;SDS011;65687;51.308;16.916;2024-03-02T09:14:34;40.40;;;23.90;;
76752;SDS011;65687;51.308;16.916;2024-03-02T09:19:38;45.90;;;28.60;;
76752;SDS011;65687;51.308;16.916;2024-03-02T09:24:40;45.60;;;24.40;;
76752;SDS011;65687;51.308;16.916;2024-03-02T09:29:42;51.40;;;29.70;;
76752;SDS011;65687;51.308;16.916;2024-03-02T09:34:44;47.10;;;28.40;;
76752;SDS011;65687;51.308;16.916;2024-03-02T09:39:46;47.10;;;27.60;;
76752;SDS011;65687;51.308;16.916;2024-03-02T09:44:47;48.10;;;26.80;;
76752;SDS011;65687;51.308;16.916;2024-03-02T09:49:49;46.00;;;27.20;;
76752;SDS011;65687;51.308;16.916;2024-03-02T09:54:51;43.10;;;27.00;;
76752;SDS011;65687;51.308;16.916;2024-03-02T09:59:52;44.40;;;26.00;;
76752;SDS011;65687;51.308;16.916;2024-03-02T10:04:54;42.80;;;26.40;;
76752;SDS011;65687;51.308;16.916;2024-03-02T10:09:56;41.40;;;23.40;;
76752;SDS011;65687;51.308;16.916;2024-03-02T10:15:03;36.40;;;22.80;;
76752;SDS011;65687;51.308;16.916;2024-03-02T10:20:22;40.90;;;25.50;;
76752;SDS011;65687;51.308;16.916;2024-03-02T10:25:28;43.60;;;25.80;;
76752;SDS011;65687;51.308;16.916;2024-03-02T10:30:32;41.70;;;27.00;;
76752;SDS011;65687;51.308;16.916;2024-03-02T10:35:35;39.70;;;24.00;;
76752;SDS011;65687;51.308;16.916;2024-03-02T10:40:39;39.10;;;24.20;;
76752;SDS011;65687;51.308;16.916;2024-03-02T10:45:40;37.20;;;22.60;;
76752;SDS011;65687;51.308;16.916;2024-03-02T10:50:42;37.20;;;22.60;;
76752;SDS011;65687;51.308;16.916;2024-03-02T10:55:44;35.20;;;22.50;;
76752;SDS011;65687;51.308;16.916;2024-03-02T11:00:50;35.50;;;21.70;;
76752;SDS011;65687;51.308;16.916;2024-03-02T11:05:53;27.80;;;17.70;;
76752;SDS011;65687;51.308;16.916;2024-03-02T11:16:03;31.20;;;18.00;;
76752;SDS011;65687;51.308;16.916;2024-03-02T11:21:07;35.10;;;21.40;;
76752;SDS011;65687;51.308;16.916;2024-03-02T11:26:21;30.90;;;19.50;;
76752;SDS011;65687;51.308;16.916;2024-03-02T11:31:54;27.50;;;16.90;;
76752;SDS011;65687;51.308;16.916;2024-03-02T11:37:02;31.20;;;19.90;;
76752;SDS011;65687;51.308;16.916;2024-03-02T11:42:07;31.60;;;17.90;;
76752;SDS011;65687;51.308;16.916;2024-03-02T11:47:13;32.90;;;18.70;;
76752;SDS011;65687;51.308;16.916;2024-03-02T11:52:16;24.90;;;16.50;;
76752;SDS011;65687;51.308;16.916;2024-03-02T11:57:20;32.20;;;19.80;;
76752;SDS011;65687;51.308;16.916;2024-03-02T12:02:25;27.50;;;17.60;;
76752;SDS011;65687;51.308;16.916;2024-03-02T12:07:27;33.20;;;21.60;;
76752;SDS011;65687;51.308;16.916;2024-03-02T12:12:28;31.50;;;18.30;;
76752;SDS011;65687;51.308;16.916;2024-03-02T12:17:30;28.20;;;16.90;;
76752;SDS011;65687;51.308;16.916;2024-03-02T12:22:32;29.90;;;19.10;;
76752;SDS011;65687;51.308;16.916;2024-03-02T12:27:34;26.40;;;17.20;;
76752;SDS011;65687;51.308;16.916;2024-03-02T12:32:36;27.00;;;16.40;;
76752;SDS011;65687;51.308;16.916;2024-03-02T12:37:45;23.10;;;16.60;;
76752;SDS011;65687;51.308;16.916;2024-03-02T12:42:48;26.10;;;15.80;;
76752;SDS011;65687;51.308;16.916;2024-03-02T12:47:50;29.50;;;17.00;;
76752;SDS011;65687;51.308;16.916;2024-03-02T12:52:53;29.20;;;17.60;;
76752;SDS011;65687;51.308;16.916;2024-03-02T12:57:56;30.10;;;19.00;;
76752;SDS011;65687;51.308;16.916;2024-03-02T13:02:58;23.20;;;16.10;;
76752;SDS011;65687;51.308;16.916;2024-03-02T13:08:03;28.00;;;17.10;;
76752;SDS011;65687;51.308;16.916;2024-03-02T13:13:08;25.50;;;15.90;;
76752;SDS011;65687;51.308;16.916;2024-03-02T13:18:10;28.30;;;17.80;;
76752;SDS011;65687;51.308;16.916;2024-03-02T13:23:12;27.60;;;16.40;;
76752;SDS011;65687;51.308;16.916;2024-03-02T13:28:14;25.00;;;16.20;;
76752;SDS011;65687;51.308;16.916;2024-03-02T13:33:16;28.20;;;16.40;;
76752;SDS011;65687;51.308;16.916;2024-03-02T13:38:21;24.00;;;16.30;;
76752;SDS011;65687;51.308;16.916;2024-03-02T13:43:22;26.20;;;15.20;;
76752;SDS011;65687;51.308;16.916;2024-03-02T13:48:25;21.30;;;14.80;;
76752;SDS011;65687;51.308;16.916;2024-03-02T13:53:27;25.20;;;14.20;;
76752;SDS011;65687;51.308;16.916;2024-03-02T13:58:29;22.40;;;13.20;;
76752;SDS011;65687;51.308;16.916;2024-03-02T14:03:31;21.10;;;14.80;;
76752;SDS011;65687;51.308;16.916;2024-03-02T14:08:33;23.10;;;14.50;;
76752;SDS011;65687;51.308;16.916;2024-03-02T14:13:37;20.90;;;13.40;;
76752;SDS011;65687;51.308;16.916;2024-03-02T14:18:38;18.80;;;13.00;;
76752;SDS011;65687;51.308;16.916;2024-03-02T14:23:40;20.80;;;14.20;;
76752;SDS011;65687;51.308;16.916;2024-03-02T14:28:42;24.60;;;13.20;;
76752;SDS011;65687;51.308;16.916;2024-03-02T14:33:44;20.90;;;14.10;;
76752;SDS011;65687;51.308;16.916;2024-03-02T14:38:45;20.70;;;13.70;;
76752;SDS011;65687;51.308;16.916;2024-03-02T14:48:50;22.30;;;15.10;;
76752;SDS011;65687;51.308;16.916;2024-03-02T14:53:52;25.50;;;14.70;;
76752;SDS011;65687;51.308;16.916;2024-03-02T14:58:54;20.70;;;13.80;;
76752;SDS011;65687;51.308;16.916;2024-03-02T15:03:56;20.20;;;13.60;;
76752;SDS011;65687;51.308;16.916;2024-03-02T15:08:57;22.30;;;14.00;;
76752;SDS011;65687;51.308;16.916;2024-03-02T15:13:59;21.50;;;13.80;;
76752;SDS011;65687;51.308;16.916;2024-03-02T15:19:01;22.10;;;14.20;;
76752;SDS011;65687;51.308;16.916;2024-03-02T15:29:05;20.30;;;12.80;;
76752;SDS011;65687;51.308;16.916;2024-03-02T15:34:06;21.30;;;14.40;;
76752;SDS011;65687;51.308;16.916;2024-03-02T15:39:09;23.60;;;14.70;;
76752;SDS011;65687;51.308;16.916;2024-03-02T15:44:10;26.30;;;14.90;;
76752;SDS011;65687;51.308;16.916;2024-03-02T15:49:12;22.60;;;13.70;;
76752;SDS011;65687;51.308;16.916;2024-03-02T15:54:14;24.10;;;15.10;;
76752;SDS011;65687;51.308;16.916;2024-03-02T15:59:16;24.30;;;15.10;;
76752;SDS011;65687;51.308;16.916;2024-03-02T16:04:18;21.70;;;14.80;;
76752;SDS011;65687;51.308;16.916;2024-03-02T16:09:19;21.10;;;13.40;;
76752;SDS011;65687;51.308;16.916;2024-03-02T16:14:21;24.00;;;14.90;;
76752;SDS011;65687;51.308;16.916;2024-03-02T16:19:23;24.60;;;16.40;;
76752;SDS011;65687;51.308;16.916;2024-03-02T16:24:24;27.20;;;15.30;;
76752;SDS011;65687;51.308;16.916;2024-03-02T16:29:26;24.00;;;15.40;;
76752;SDS011;65687;51.308;16.916;2024-03-02T16:34:28;22.00;;;15.10;;
76752;SDS011;65687;51.308;16.916;2024-03-02T16:39:29;27.20;;;17.20;;
76752;SDS011;65687;51.308;16.916;2024-03-02T16:44:31;24.10;;;14.60;;
76752;SDS011;65687;51.308;16.916;2024-03-02T16:49:33;24.50;;;15.20;;
76752;SDS011;65687;51.308;16.916;2024-03-02T16:54:35;23.40;;;14.50;;
76752;SDS011;65687;51.308;16.916;2024-03-02T16:59:36;23.90;;;15.80;;
76752;SDS011;65687;51.308;16.916;2024-03-02T17:04:38;23.80;;;15.20;;
76752;SDS011;65687;51.308;16.916;2024-03-02T17:09:41;25.00;;;15.30;;
76752;SDS011;65687;51.308;16.916;2024-03-02T17:14:43;24.00;;;15.20;;
76752;SDS011;65687;51.308;16.916;2024-03-02T17:19:46;23.60;;;15.40;;
76752;SDS011;65687;51.308;16.916;2024-03-02T17:24:48;23.70;;;15.30;;
76752;SDS011;65687;51.308;16.916;2024-03-02T17:29:50;26.20;;;15.70;;
76752;SDS011;65687;51.308;16.916;2024-03-02T17:34:51;23.60;;;14.30;;
76752;SDS011;65687;51.308;16.916;2024-03-02T17:39:53;23.40;;;15.30;;
76752;SDS011;65687;51.308;16.916;2024-03-02T17:44:56;23.20;;;15.10;;
76752;SDS011;65687;51.308;16.916;2024-03-02T17:49:57;25.90;;;16.50;;
76752;SDS011;65687;51.308;16.916;2024-03-02T17:54:59;23.70;;;16.20;;
76752;SDS011;65687;51.308;16.916;2024-03-02T18:00:00;28.00;;;18.20;;
76752;SDS011;65687;51.308;16.916;2024-03-02T18:05:02;30.20;;;18.90;;
76752;SDS011;65687;51.308;16.916;2024-03-02T18:10:05;28.50;;;17.80;;
76752;SDS011;65687;51.308;16.916;2024-03-02T18:15:08;34.70;;;20.50;;
76752;SDS011;65687;51.308;16.916;2024-03-02T18:20:10;30.40;;;19.50;;
76752;SDS011;65687;51.308;16.916;2024-03-02T18:30:14;32.80;;;20.40;;
76752;SDS011;65687;51.308;16.916;2024-03-02T18:35:15;35.10;;;20.50;;
76752;SDS011;65687;51.308;16.916;2024-03-02T18:40:19;32.10;;;20.40;;
76752;SDS011;65687;51.308;16.916;2024-03-02T18:45:20;35.40;;;21.00;;
76752;SDS011;65687;51.308;16.916;2024-03-02T18:50:22;38.50;;;21.90;;
76752;SDS011;65687;51.308;16.916;2024-03-02T18:55:24;32.30;;;20.00;;
76752;SDS011;65687;51.308;16.916;2024-03-02T19:00:26;32.10;;;19.70;;
76752;SDS011;65687;51.308;16.916;2024-03-02T19:05:27;34.10;;;19.30;;
76752;SDS011;65687;51.308;16.916;2024-03-02T19:10:29;31.00;;;18.20;;
76752;SDS011;65687;51.308;16.916;2024-03-02T19:15:31;30.70;;;19.50;;
76752;SDS011;65687;51.308;16.916;2024-03-02T19:20:32;25.60;;;16.30;;
76752;SDS011;65687;51.308;16.916;2024-03-02T19:25:34;23.40;;;16.10;;
76752;SDS011;65687;51.308;16.916;2024-03-02T19:30:36;24.20;;;15.90;;
76752;SDS011;65687;51.308;16.916;2024-03-02T19:40:40;22.80;;;14.90;;
76752;SDS011;65687;51.308;16.916;2024-03-02T19:45:41;23.10;;;14.60;;
76752;SDS011;65687;51.308;16.916;2024-03-02T19:50:43;22.80;;;14.30;;
76752;SDS011;65687;51.308;16.916;2024-03-02T19:55:45;22.80;;;13.40;;
76752;SDS011;65687;51.308;16.916;2024-03-02T20:00:47;19.70;;;12.90;;
76752;SDS011;65687;51.308;16.916;2024-03-02T20:05:49;18.90;;;12.20;;
76752;SDS011;65687;51.308;16.916;2024-03-02T20:10:51;19.70;;;13.20;;
76752;SDS011;65687;51.308;16.916;2024-03-02T20:15:53;19.80;;;13.50;;
76752;SDS011;65687;51.308;16.916;2024-03-02T20:20:55;18.40;;;11.40;;
76752;SDS011;65687;51.308;16.916;2024-03-02T20:25:57;18.10;;;11.90;;
76752;SDS011;65687;51.308;16.916;2024-03-02T20:30:59;16.60;;;11.40;;
76752;SDS011;65687;51.308;16.916;2024-03-02T20:36:01;19.50;;;12.60;;
76752;SDS011;65687;51.308;16.916;2024-03-02T20:41:04;17.30;;;10.30;;
76752;SDS011;65687;51.308;16.916;2024-03-02T20:46:05;16.80;;;10.90;;
76752;SDS011;65687;51.308;16.916;2024-03-02T20:51:08;15.60;;;10.30;;
76752;SDS011;65687;51.308;16.916;2024-03-02T20:56:10;15.60;;;10.20;;
76752;SDS011;65687;51.308;16.916;2024-03-02T21:01:12;16.10;;;9.80;;
76752;SDS011;65687;51.308;16.916;2024-03-02T21:06:13;14.40;;;8.90;;
76752;SDS011;65687;51.308;16.916;2024-03-02T21:11:15;16.40;;;10.80;;
76752;SDS011;65687;51.308;16.916;2024-03-02T21:16:19;14.70;;;9.50;;
76752;SDS011;65687;51.308;16.916;2024-03-02T21:21:21;13.20;;;8.20;;
76752;SDS011;65687;51.308;16.916;2024-03-02T21:26:23;14.20;;;8.60;;
76752;SDS011;65687;51.308;16.916;2024-03-02T21:31:25;13.60;;;8.50;;
76752;SDS011;65687;51.308;16.916;2024-03-02T21:36:26;15.80;;;9.40;;
76752;SDS011;65687;51.308;16.916;2024-03-02T21:41:28;14.10;;;10.20;;
76752;SDS011;65687;51.308;16.916;2024-03-02T21:46:30;15.20;;;9.20;;
76752;SDS011;65687;51.308;16.916;2024-03-02T21:51:32;13.60;;;9.40;;
76752;SDS011;65687;51.308;16.916;2024-03-02T21:56:34;15.50;;;10.20;;
76752;SDS011;65687;51.308;16.916;2024-03-02T22:01:35;15.40;;;10.80;;
76752;SDS011;65687;51.308;16.916;2024-03-02T22:06:38;16.80;;;11.10;;
76752;SDS011;65687;51.308;16.916;2024-03-02T22:11:40;16.80;;;10.80;;
76752;SDS011;65687;51.308;16.916;2024-03-02T22:16:41;16.10;;;10.40;;
76752;SDS011;65687;51.308;16.916;2024-03-02T22:21:43;15.00;;;9.50;;
76752;SDS011;65687;51.308;16.916;2024-03-02T22:26:44;16.10;;;9.80;;
76752;SDS011;65687;51.308;16.916;2024-03-02T22:31:46;13.10;;;10.40;;
76752;SDS011;65687;51.308;16.916;2024-03-02T22:36:48;14.00;;;9.90;;
76752;SDS011;65687;51.308;16.916;2024-03-02T22:41:49;13.90;;;9.90;;
76752;SDS011;65687;51.308;16.916;2024-03-02T22:46:52;15.70;;;9.80;;
76752;SDS011;65687;51.308;16.916;2024-03-02T22:51:56;15.20;;;9.80;;
76752;SDS011;65687;51.308;16.916;2024-03-02T22:56:58;17.40;;;11.10;;
76752;SDS011;65687;51.308;16.916;2024-03-02T23:02:00;14.20;;;10.30;;
76752;SDS011;65687;51.308;16.916;2024-03-02T23:07:01;16.40;;;10.60;;
76752;SDS011;65687;51.308;16.916;2024-03-02T23:12:03;13.60;;;8.80;;
76752;SDS011;65687;51.308;16.916;2024-03-02T23:17:05;13.50;;;9.70;;
76752;SDS011;65687;51.308;16.916;2024-03-02T23:22:07;14.70;;;9.40;;
76752;SDS011;65687;51.308;16.916;2024-03-02T23:32:11;13.30;;;9.60;;
76752;SDS011;65687;51.308;16.916;2024-03-02T23:37:12;12.80;;;9.00;;
76752;SDS011;65687;51.308;16.916;2024-03-02T23:42:14;18.70;;;12.20;;
76752;SDS011;65687;51.308;16.916;2024-03-02T23:47:16;17.50;;;11.30;;
76752;SDS011;65687;51.308;16.916;2024-03-02T23:52:17;19.10;;;11.20;;
76752;SDS011;65687;51.308;16.916;2024-03-02T23:57:19;18.40;;;12.00;;
